createdAt,value
2022-10-17T00:02:02.758Z,11.90
2022-10-17T00:11:58.362Z,12.36
2022-10-17T00:15:42.053Z,12.55
2022-10-17T00:25:06.325Z,12.67
2022-10-17T00:38:54.179Z,12.73
2022-10-17T03:05:47.362Z,12.90
2022-10-17T04:16:58.326Z,13.12
2022-10-17T04:20:48.637Z,12.97
2022-10-17T04:23:57.847Z,12.93
2022-10-17T04:30:21.156Z,12.94
2022-10-17T04:44:22.529Z,12.74
2022-10-17T04:48:12.287Z,12.97
2022-10-17T05:04:33.399Z,12.84
2022-10-17T05:08:01.795Z,12.97
2022-10-17T05:11:34.771Z,12.90
2022-10-17T05:17:44.326Z,12.73
2022-10-17T05:20:34.789Z,12.87
2022-10-17T05:23:27.911Z,12.77
2022-10-17T05:36:46.555Z,12.59
2022-10-17T05:49:14.953Z,12.55
2022-10-17T05:57:31.100Z,12.61
2022-10-17T06:05:38.790Z,12.46
2022-10-17T06:19:20.019Z,12.69
2022-10-17T06:38:03.839Z,12.71
2022-10-17T06:48:54.819Z,12.96
2022-10-17T06:56:32.046Z,12.91
2022-10-17T08:34:40.827Z,15.55
2022-10-17T08:53:34.542Z,16.00
2022-10-17T09:08:41.893Z,16.35
2022-10-17T09:19:18.832Z,16.79
2022-10-17T09:22:53.445Z,16.93
2022-10-17T09:26:30.557Z,16.98
2022-10-17T09:34:27.474Z,17.39
2022-10-17T10:01:42.020Z,17.96
2022-10-17T10:04:59.744Z,18.12
2022-10-17T10:22:24.328Z,18.49
2022-10-17T10:26:27.497Z,18.75
2022-10-17T10:30:08.151Z,18.77
2022-10-17T10:52:17.107Z,19.35
2022-10-17T11:45:56.443Z,20.06
2022-10-17T12:02:20.855Z,20.25
2022-10-17T12:16:57.642Z,20.06
2022-10-17T12:23:43.765Z,19.96
2022-10-17T12:26:49.645Z,19.90
2022-10-17T12:30:09.289Z,19.67
2022-10-17T12:36:44.866Z,19.42
2022-10-17T12:39:17.535Z,19.39
2022-10-17T12:41:46.436Z,19.39
2022-10-17T12:44:19.926Z,19.39
2022-10-17T12:46:50.963Z,19.42
2022-10-17T12:49:45.481Z,19.36
2022-10-17T12:52:22.239Z,19.41
2022-10-17T12:55:14.889Z,19.34
2022-10-17T12:57:59.402Z,19.35
2022-10-17T13:00:36.191Z,19.31
2022-10-17T13:03:31.365Z,19.18
2022-10-17T13:06:06.340Z,19.15
2022-10-17T13:09:05.685Z,19.04
2022-10-17T13:11:35.744Z,19.05
2022-10-17T13:14:15.204Z,19.05
2022-10-17T13:17:27.562Z,18.90
2022-10-17T13:19:55.725Z,18.88
2022-10-17T13:22:29.186Z,18.81
2022-10-17T13:25:18.254Z,18.67
2022-10-17T13:31:04.984Z,18.62
2022-10-17T13:33:39.266Z,18.72
2022-10-17T13:36:19.624Z,18.75
2022-10-17T13:38:47.136Z,18.56
2022-10-17T13:44:27.601Z,18.48
2022-10-17T13:46:55.031Z,18.51
2022-10-17T13:49:44.242Z,18.58
2022-10-17T13:52:24.770Z,18.62
2022-10-17T13:54:54.233Z,18.58
2022-10-17T13:57:35.446Z,18.39
2022-10-17T14:00:11.396Z,18.45
2022-10-17T14:03:05.064Z,18.41
2022-10-17T14:05:33.653Z,18.32
2022-10-17T14:08:13.366Z,18.35
2022-10-17T14:10:43.900Z,18.39
2022-10-17T14:13:27.818Z,18.41
2022-10-17T14:15:56.939Z,18.36
2022-10-17T14:18:36.176Z,18.39
2022-10-17T14:24:15.717Z,18.48
2022-10-17T14:26:52.409Z,18.42
2022-10-17T14:35:41.236Z,18.38
2022-10-17T14:38:15.021Z,18.36
2022-10-17T14:40:50.658Z,18.32
2022-10-17T14:43:25.156Z,18.33
2022-10-17T14:45:53.018Z,18.41
2022-10-17T14:48:23.772Z,18.39
2022-10-17T14:51:11.504Z,18.39
2022-10-17T14:53:39.787Z,18.36
2022-10-17T14:56:53.039Z,18.29
2022-10-17T14:59:54.150Z,18.31
2022-10-17T15:02:25.296Z,18.21
2022-10-17T15:04:57.110Z,18.18
2022-10-17T15:10:28.339Z,18.18
2022-10-17T15:12:59.386Z,18.26
2022-10-17T15:15:43.419Z,18.17
2022-10-17T15:18:37.571Z,18.22
2022-10-17T15:21:33.715Z,18.18
2022-10-17T15:27:03.425Z,18.14
2022-10-17T15:29:31.007Z,18.12
2022-10-17T15:31:58.938Z,18.05
2022-10-17T15:34:31.988Z,18.14
2022-10-17T15:36:59.162Z,18.10
2022-10-17T15:39:27.021Z,18.04
2022-10-17T15:41:59.900Z,18.04
2022-10-17T15:44:27.089Z,18.01
2022-10-17T15:47:04.540Z,17.96
2022-10-17T15:50:02.323Z,17.98
2022-10-17T15:52:29.108Z,17.94
2022-10-17T15:54:59.556Z,18.00
2022-10-17T16:00:32.020Z,17.93
2022-10-17T16:02:58.961Z,17.97
2022-10-17T16:08:19.026Z,17.82
2022-10-17T16:10:47.013Z,17.89
2022-10-17T16:13:25.894Z,17.86
2022-10-17T16:15:53.025Z,17.74
2022-10-17T16:18:21.163Z,17.70
2022-10-17T16:20:54.033Z,17.79
2022-10-17T16:23:21.161Z,17.77
2022-10-17T16:25:53.969Z,17.73
2022-10-17T16:28:20.941Z,17.80
2022-10-17T16:30:54.294Z,17.73
2022-10-17T16:33:20.958Z,17.66
2022-10-17T16:35:49.389Z,17.66
2022-10-17T16:38:16.944Z,17.76
2022-10-17T16:40:45.082Z,17.62
2022-10-17T16:43:13.283Z,17.67
2022-10-17T16:45:41.383Z,17.62
2022-10-17T16:48:09.626Z,17.69
2022-10-17T16:50:39.631Z,17.67
2022-10-17T16:53:07.384Z,17.67
2022-10-17T16:56:06.941Z,17.70
2022-10-17T16:58:35.012Z,17.63
2022-10-17T17:01:11.110Z,17.72
2022-10-17T17:03:40.815Z,17.62
2022-10-17T17:06:12.940Z,17.59
2022-10-17T17:08:42.401Z,17.61
2022-10-17T17:11:17.373Z,17.62
2022-10-17T17:13:47.347Z,17.53
2022-10-17T17:16:17.887Z,17.61
2022-10-17T17:19:13.949Z,17.52
2022-10-17T17:22:16.552Z,17.52
2022-10-17T17:24:45.360Z,17.66
2022-10-17T17:27:13.686Z,17.62
2022-10-17T17:29:40.973Z,17.48
2022-10-17T17:32:10.594Z,17.50
2022-10-17T17:34:44.087Z,17.42
2022-10-17T17:37:16.369Z,17.52
2022-10-17T17:39:45.068Z,17.50
2022-10-17T17:42:13.007Z,17.45
2022-10-17T17:44:41.044Z,17.48
2022-10-17T17:47:08.974Z,17.50
2022-10-17T17:50:02.335Z,17.59
2022-10-17T17:52:29.865Z,17.57
2022-10-17T17:55:03.069Z,17.53
2022-10-17T17:57:59.058Z,17.63
2022-10-17T18:00:27.537Z,17.57
2022-10-17T18:03:00.025Z,17.53
2022-10-17T18:05:27.828Z,17.52
2022-10-17T18:07:55.081Z,17.52
2022-10-17T18:10:49.191Z,17.57
2022-10-17T18:13:17.033Z,17.50
2022-10-17T18:15:45.478Z,17.63
2022-10-17T18:18:13.246Z,17.65
2022-10-17T18:20:46.971Z,17.50
2022-10-17T18:23:16.217Z,17.56
2022-10-17T18:25:58.002Z,17.59
2022-10-17T18:28:25.191Z,17.62
2022-10-17T18:30:53.220Z,17.56
2022-10-17T18:33:21.041Z,17.55
2022-10-17T18:35:48.996Z,17.63
2022-10-17T18:38:16.993Z,17.57
2022-10-17T18:40:47.283Z,17.65
2022-10-17T18:43:24.282Z,17.57
2022-10-17T18:45:51.031Z,17.48
2022-10-17T18:48:19.012Z,17.53
2022-10-17T18:50:47.036Z,17.46
2022-10-17T18:53:18.972Z,17.40
2022-10-17T18:55:50.898Z,17.53
2022-10-17T18:58:21.249Z,17.52
2022-10-17T19:00:55.168Z,17.57
2022-10-17T19:03:23.007Z,17.45
2022-10-17T19:05:51.100Z,17.50
2022-10-17T19:08:18.977Z,17.27
2022-10-17T19:10:46.948Z,17.27
2022-10-17T19:13:19.335Z,17.24
2022-10-17T19:15:55.081Z,17.39
2022-10-17T19:18:23.011Z,17.32
2022-10-17T19:20:52.961Z,17.46
2022-10-17T19:23:20.993Z,17.29
2022-10-17T19:25:48.929Z,17.31
2022-10-17T19:28:16.958Z,17.43
2022-10-17T19:30:44.918Z,17.53
2022-10-17T19:33:13.003Z,17.45
2022-10-17T19:35:41.302Z,17.35
2022-10-17T19:38:09.181Z,17.49
2022-10-17T19:40:47.703Z,17.45
2022-10-17T19:43:17.279Z,17.27
2022-10-17T19:46:01.533Z,17.35
2022-10-17T19:48:35.435Z,17.39
2022-10-17T19:51:04.135Z,17.36
2022-10-17T19:53:31.270Z,17.22
2022-10-17T19:56:03.627Z,17.36
2022-10-17T19:58:32.810Z,17.36
2022-10-17T20:01:05.612Z,17.36
2022-10-17T20:03:33.014Z,17.36
2022-10-17T20:06:01.141Z,17.38
2022-10-17T20:08:54.558Z,17.28
2022-10-17T20:11:30.883Z,17.32
2022-10-17T20:14:00.160Z,17.25
2022-10-17T20:16:31.027Z,17.19
2022-10-17T20:19:04.530Z,17.17
2022-10-17T20:21:35.150Z,17.14
2022-10-17T20:24:05.375Z,17.03
2022-10-17T20:26:39.025Z,16.91
2022-10-17T20:29:17.535Z,16.97
2022-10-17T20:31:46.308Z,16.94
2022-10-17T20:34:15.886Z,17.03
2022-10-17T20:36:43.325Z,16.98
2022-10-17T20:39:13.581Z,16.80
2022-10-17T20:41:43.903Z,16.90
2022-10-17T20:44:16.988Z,16.90
2022-10-17T20:47:00.674Z,16.94
2022-10-17T20:49:44.059Z,16.64
2022-10-17T20:52:11.127Z,16.66
2022-10-17T20:54:39.161Z,16.79
2022-10-17T20:57:07.152Z,16.70
2022-10-17T20:59:36.045Z,16.57
2022-10-17T21:02:29.012Z,16.57
2022-10-17T21:04:56.954Z,16.59
2022-10-17T21:07:29.283Z,16.57
2022-10-17T21:10:00.334Z,16.52
2022-10-17T21:12:49.934Z,16.55
2022-10-17T21:15:47.196Z,16.38
2022-10-17T21:18:15.429Z,16.28
2022-10-17T21:20:43.180Z,16.35
2022-10-17T21:23:10.938Z,16.42
2022-10-17T21:25:43.030Z,16.41
2022-10-17T21:28:10.979Z,16.49
2022-10-17T21:30:38.951Z,16.39
2022-10-17T21:33:06.970Z,16.41
2022-10-17T21:35:35.023Z,16.39
2022-10-17T21:38:07.001Z,16.39
2022-10-17T21:40:35.067Z,16.39
2022-10-17T21:43:07.981Z,16.31
2022-10-17T21:45:36.120Z,16.08
2022-10-17T21:48:18.328Z,16.24
2022-10-17T21:50:44.969Z,16.26
2022-10-17T21:53:12.979Z,16.22
2022-10-17T21:55:40.994Z,16.18
2022-10-17T21:58:09.003Z,16.25
2022-10-17T22:00:36.975Z,16.29
2022-10-17T22:03:10.893Z,16.04
2022-10-17T22:05:39.041Z,16.07
2022-10-17T22:08:07.333Z,16.13
2022-10-17T22:10:44.380Z,16.14
2022-10-17T22:13:11.242Z,16.13
2022-10-17T22:16:11.260Z,16.13
2022-10-17T22:18:39.274Z,15.96
2022-10-17T22:21:19.638Z,16.10
2022-10-17T22:26:41.570Z,16.01
2022-10-17T22:29:09.617Z,16.13
2022-10-17T22:31:37.783Z,15.97
2022-10-17T22:34:06.433Z,15.96
2022-10-17T22:36:35.805Z,15.97
2022-10-17T22:39:04.135Z,16.03
2022-10-17T22:41:31.129Z,15.96
2022-10-17T22:43:59.135Z,16.04
2022-10-17T22:46:27.278Z,16.08
2022-10-17T22:48:54.960Z,16.13
2022-10-17T22:53:51.054Z,16.07
2022-10-17T22:56:20.714Z,16.13
2022-10-17T22:58:49.360Z,16.13
2022-10-17T23:01:41.209Z,15.86
2022-10-17T23:04:38.387Z,16.03
2022-10-17T23:07:11.121Z,15.97
2022-10-17T23:10:05.413Z,15.96
2022-10-17T23:12:33.144Z,16.05
2022-10-17T23:15:00.982Z,16.07
2022-10-17T23:17:29.010Z,16.08
2022-10-17T23:20:01.964Z,16.08
2022-10-17T23:25:27.223Z,16.03
2022-10-17T23:27:55.360Z,16.01
2022-10-17T23:30:27.149Z,16.04
2022-10-17T23:33:04.094Z,15.97
2022-10-17T23:35:31.497Z,15.86
2022-10-17T23:37:59.036Z,16.01
2022-10-17T23:40:27.063Z,15.87
2022-10-17T23:42:55.021Z,15.96
2022-10-17T23:45:23.068Z,15.81
2022-10-17T23:47:51.004Z,15.88
2022-10-17T23:50:45.088Z,15.88
2022-10-17T23:53:17.950Z,15.65
2022-10-17T23:55:45.154Z,15.83
2022-10-17T23:58:12.974Z,15.86
